createdAt,value
2018-10-18T00:02:19.470Z,13.60
2018-10-18T00:04:48.640Z,13.50
2018-10-18T00:07:16.982Z,13.50
2018-10-18T00:09:45.345Z,13.50
2018-10-18T00:12:14.586Z,13.50
2018-10-18T00:14:42.818Z,13.50
2018-10-18T00:17:11.930Z,13.50
2018-10-18T00:19:40.306Z,13.50
2018-10-18T00:22:08.718Z,13.50
2018-10-18T00:24:37.087Z,13.40
2018-10-18T00:27:05.476Z,13.40
2018-10-18T00:29:33.862Z,13.40
2018-10-18T00:32:02.241Z,13.40
2018-10-18T00:34:30.619Z,13.40
2018-10-18T00:36:58.985Z,13.40
2018-10-18T00:39:27.386Z,13.30
2018-10-18T00:41:55.766Z,13.30
2018-10-18T00:44:24.220Z,13.30
2018-10-18T00:46:52.551Z,13.30
2018-10-18T00:49:20.998Z,13.20
2018-10-18T00:51:49.333Z,13.20
2018-10-18T00:54:17.820Z,13.20
2018-10-18T00:56:46.940Z,13.20
2018-10-18T00:59:15.318Z,13.20
2018-10-18T01:01:43.675Z,13.10
2018-10-18T01:04:13.124Z,13.10
2018-10-18T01:06:41.657Z,13.10
2018-10-18T01:09:10.805Z,13.10
2018-10-18T01:11:39.172Z,13.00
2018-10-18T01:14:07.537Z,13.00
2018-10-18T01:16:36.684Z,13.00
2018-10-18T01:19:05.038Z,13.00
2018-10-18T01:21:33.397Z,13.00
2018-10-18T01:24:01.767Z,12.90
2018-10-18T01:26:30.428Z,12.90
2018-10-18T01:28:58.977Z,12.90
2018-10-18T01:31:27.350Z,12.90
2018-10-18T01:33:55.688Z,12.90
2018-10-18T01:36:24.036Z,12.90
2018-10-18T01:38:53.195Z,12.90
2018-10-18T01:41:21.551Z,12.90
2018-10-18T01:43:49.911Z,12.90
2018-10-18T01:46:18.291Z,13.00
2018-10-18T01:48:47.401Z,12.90
2018-10-18T01:51:15.777Z,12.90
2018-10-18T01:53:44.150Z,12.90
2018-10-18T01:56:12.631Z,12.90
2018-10-18T01:58:41.048Z,12.90
2018-10-18T02:01:09.491Z,12.90
2018-10-18T02:03:37.884Z,12.90
2018-10-18T02:06:06.342Z,12.90
2018-10-18T02:08:34.682Z,13.00
2018-10-18T02:11:03.106Z,12.90
2018-10-18T02:13:31.519Z,12.90
2018-10-18T02:15:59.891Z,12.90
2018-10-18T02:18:28.219Z,12.90
2018-10-18T02:20:56.629Z,12.90
2018-10-18T02:23:24.979Z,12.80
2018-10-18T02:25:53.335Z,12.80
2018-10-18T02:28:21.701Z,12.70
2018-10-18T02:30:50.075Z,12.60
2018-10-18T02:33:18.425Z,12.60
2018-10-18T02:35:46.782Z,12.50
2018-10-18T02:38:15.186Z,12.50
2018-10-18T02:40:43.525Z,12.50
2018-10-18T02:43:11.906Z,12.50
2018-10-18T02:45:40.295Z,12.50
2018-10-18T02:48:08.702Z,12.50
2018-10-18T02:50:37.076Z,12.50
2018-10-18T02:53:06.265Z,12.50
2018-10-18T02:55:35.368Z,12.50
2018-10-18T02:58:04.616Z,12.50
2018-10-18T03:00:32.982Z,12.50
2018-10-18T03:03:01.345Z,12.50
2018-10-18T03:05:29.928Z,12.50
2018-10-18T03:07:58.366Z,12.50
2018-10-18T03:10:26.724Z,12.50
2018-10-18T03:12:55.108Z,12.50
2018-10-18T03:15:23.468Z,12.50
2018-10-18T03:17:51.877Z,12.50
2018-10-18T03:20:20.242Z,12.60
2018-10-18T03:22:48.600Z,12.60
2018-10-18T03:25:16.932Z,12.50
2018-10-18T03:27:45.312Z,12.50
2018-10-18T03:30:13.767Z,12.60
2018-10-18T03:32:42.026Z,12.50
2018-10-18T03:35:10.476Z,12.50
2018-10-18T03:37:38.844Z,12.50
2018-10-18T03:40:07.968Z,12.50
2018-10-18T03:42:36.315Z,12.50
2018-10-18T03:45:05.447Z,12.50
2018-10-18T03:47:33.794Z,12.50
2018-10-18T03:50:02.894Z,12.50
2018-10-18T03:52:31.262Z,12.50
2018-10-18T03:55:00.404Z,12.50
2018-10-18T03:57:28.768Z,12.50
2018-10-18T03:59:57.168Z,12.50
2018-10-18T04:02:26.223Z,12.60
2018-10-18T04:04:55.354Z,12.60
2018-10-18T04:07:23.688Z,12.60
2018-10-18T04:09:52.794Z,12.60
2018-10-18T04:12:21.224Z,12.60
2018-10-18T04:14:50.296Z,12.70
2018-10-18T04:17:18.686Z,12.70
2018-10-18T04:19:47.018Z,12.60
2018-10-18T04:22:16.150Z,12.70
2018-10-18T04:24:44.507Z,12.70
2018-10-18T04:27:13.269Z,12.70
2018-10-18T04:29:41.652Z,12.70
2018-10-18T04:32:10.116Z,12.70
2018-10-18T04:34:38.592Z,12.70
2018-10-18T04:37:06.951Z,12.80
2018-10-18T04:39:35.326Z,12.80
2018-10-18T04:42:03.737Z,12.80
2018-10-18T04:44:32.109Z,12.80
2018-10-18T04:47:00.526Z,12.80
2018-10-18T04:49:28.905Z,12.90
2018-10-18T04:51:58.025Z,12.90
2018-10-18T04:54:26.404Z,12.90
2018-10-18T04:56:57.486Z,13.00
2018-10-18T04:59:25.967Z,13.00
2018-10-18T05:01:54.322Z,13.00
2018-10-18T05:04:22.655Z,13.10
2018-10-18T05:06:51.825Z,13.10
2018-10-18T05:09:20.229Z,13.10
2018-10-18T05:11:49.351Z,13.10
2018-10-18T05:14:19.324Z,13.10
2018-10-18T05:16:47.723Z,13.10
2018-10-18T05:19:16.798Z,13.20
2018-10-18T05:21:45.067Z,13.20
2018-10-18T05:24:13.446Z,13.20
2018-10-18T05:26:41.823Z,13.20
2018-10-18T05:29:10.202Z,13.20
2018-10-18T05:31:38.569Z,13.20
2018-10-18T05:34:06.934Z,13.20
2018-10-18T05:36:35.271Z,13.30
2018-10-18T05:39:04.396Z,13.30
2018-10-18T05:41:32.768Z,13.30
2018-10-18T05:44:01.844Z,13.30
2018-10-18T05:46:30.997Z,13.30
2018-10-18T05:48:59.449Z,13.30
2018-10-18T05:51:28.738Z,13.30
2018-10-18T05:53:57.331Z,13.30
2018-10-18T05:56:25.570Z,13.30
2018-10-18T05:58:53.993Z,13.30
2018-10-18T06:01:22.360Z,13.30
2018-10-18T06:03:51.478Z,13.40
2018-10-18T06:06:19.847Z,13.40
2018-10-18T06:08:49.174Z,13.40
2018-10-18T06:11:17.598Z,13.40
2018-10-18T06:13:45.920Z,13.50
2018-10-18T06:16:14.348Z,13.50
2018-10-18T06:18:42.641Z,13.40
2018-10-18T06:21:11.820Z,13.40
2018-10-18T06:23:40.184Z,13.40
2018-10-18T06:26:08.558Z,13.40
2018-10-18T06:28:36.886Z,13.50
2018-10-18T06:31:06.057Z,13.50
2018-10-18T06:33:34.416Z,13.50
2018-10-18T06:36:02.790Z,13.60
2018-10-18T06:38:31.168Z,13.60
2018-10-18T06:40:59.624Z,13.70
2018-10-18T06:43:28.029Z,13.70
2018-10-18T06:45:56.350Z,13.70
2018-10-18T06:48:24.708Z,13.70
2018-10-18T06:50:53.083Z,13.70
2018-10-18T06:53:21.434Z,13.80
2018-10-18T06:55:50.382Z,13.90
2018-10-18T06:58:18.746Z,14.00
2018-10-18T07:00:47.112Z,14.00
2018-10-18T07:03:15.534Z,14.10
2018-10-18T07:05:43.922Z,14.20
2018-10-18T07:08:12.338Z,14.20
2018-10-18T07:10:40.701Z,14.30
2018-10-18T07:13:09.074Z,14.20
2018-10-18T07:15:37.752Z,14.20
2018-10-18T07:18:06.092Z,14.20
2018-10-18T07:20:35.022Z,14.20
2018-10-18T07:23:03.377Z,14.10
2018-10-18T07:25:33.328Z,14.20
2018-10-18T07:28:01.672Z,14.10
2018-10-18T07:30:30.794Z,14.10
2018-10-18T07:32:59.205Z,14.10
2018-10-18T07:35:27.659Z,14.10
2018-10-18T07:37:56.022Z,14.00
2018-10-18T07:40:25.157Z,14.10
2018-10-18T07:42:53.493Z,14.10
2018-10-18T07:45:21.854Z,14.00
2018-10-18T07:47:50.306Z,13.90
2018-10-18T07:50:18.754Z,13.90
2018-10-18T07:52:47.103Z,13.80
2018-10-18T07:55:16.247Z,13.80
2018-10-18T07:57:44.642Z,13.80
2018-10-18T08:00:13.176Z,13.80
2018-10-18T08:02:41.870Z,13.90
2018-10-18T08:05:10.278Z,14.00
2018-10-18T08:07:38.630Z,14.00
2018-10-18T08:10:07.057Z,14.10
2018-10-18T08:12:35.410Z,14.10
2018-10-18T08:15:04.504Z,14.20
2018-10-18T08:17:32.997Z,14.10
2018-10-18T08:20:01.273Z,14.20
2018-10-18T08:22:29.683Z,14.20
2018-10-18T08:24:58.061Z,14.30
2018-10-18T08:27:26.508Z,14.40
2018-10-18T08:29:54.880Z,14.40
2018-10-18T08:32:23.240Z,14.30
2018-10-18T08:34:51.924Z,14.30
2018-10-18T08:37:21.025Z,14.50
2018-10-18T08:39:49.346Z,14.50
2018-10-18T08:42:17.760Z,14.40
2018-10-18T08:44:46.088Z,14.50
2018-10-18T08:47:14.478Z,14.50
2018-10-18T08:49:42.877Z,14.60
2018-10-18T08:52:11.238Z,14.60
2018-10-18T08:54:39.650Z,14.80
2018-10-18T08:57:08.014Z,14.90
2018-10-18T08:59:37.266Z,15.10
2018-10-18T09:02:05.656Z,15.20
2018-10-18T09:04:34.008Z,15.20
2018-10-18T09:07:02.437Z,15.10
2018-10-18T09:09:31.796Z,14.80
2018-10-18T09:12:00.162Z,14.70
2018-10-18T09:14:29.286Z,14.60
2018-10-18T09:16:57.620Z,14.60
2018-10-18T09:19:27.115Z,14.80
2018-10-18T09:21:55.473Z,14.80
2018-10-18T09:24:23.826Z,14.90
2018-10-18T09:26:52.496Z,15.00
2018-10-18T09:29:20.827Z,15.10
2018-10-18T09:31:49.330Z,15.30
2018-10-18T09:34:18.626Z,15.30
2018-10-18T09:36:47.015Z,15.20
2018-10-18T09:39:15.390Z,15.40
2018-10-18T09:41:43.766Z,15.60
2018-10-18T09:44:12.260Z,15.70
2018-10-18T09:46:40.538Z,15.90
2018-10-18T09:49:09.699Z,16.00
2018-10-18T09:51:38.180Z,16.00
2018-10-18T09:54:06.529Z,16.30
2018-10-18T09:56:35.655Z,16.30
2018-10-18T09:59:04.005Z,16.30
2018-10-18T10:01:53.156Z,16.50
2018-10-18T10:04:21.705Z,16.70
2018-10-18T10:06:50.037Z,16.90
2018-10-18T10:09:18.415Z,16.90
2018-10-18T10:11:46.915Z,17.00
2018-10-18T10:14:15.203Z,17.20
2018-10-18T10:16:43.553Z,17.20
2018-10-18T10:19:11.974Z,17.30
2018-10-18T10:21:40.296Z,17.20
2018-10-18T10:24:09.113Z,17.10
2018-10-18T10:26:37.481Z,16.90
2018-10-18T10:29:05.838Z,16.80
2018-10-18T10:31:34.961Z,16.40
2018-10-18T10:34:03.317Z,16.40
2018-10-18T10:36:32.650Z,16.30
2018-10-18T10:39:01.031Z,16.20
2018-10-18T10:41:29.360Z,16.00
2018-10-18T10:43:57.821Z,16.00
2018-10-18T10:46:26.184Z,15.90
2018-10-18T10:48:54.573Z,15.90
2018-10-18T10:51:22.950Z,16.00
2018-10-18T10:53:51.275Z,16.10
2018-10-18T10:56:19.669Z,16.20
2018-10-18T10:58:48.028Z,16.30
2018-10-18T11:01:17.131Z,16.00
2018-10-18T11:03:45.511Z,16.10
2018-10-18T11:06:13.955Z,16.00
2018-10-18T11:08:43.211Z,16.30
2018-10-18T11:11:11.587Z,16.30
2018-10-18T11:13:40.008Z,16.40
2018-10-18T11:16:08.364Z,16.60
2018-10-18T11:18:37.754Z,16.60
2018-10-18T11:21:06.156Z,16.90
2018-10-18T11:23:34.714Z,17.50
2018-10-18T11:26:03.113Z,18.00
2018-10-18T11:28:32.332Z,17.90
2018-10-18T11:31:00.738Z,18.10
2018-10-18T11:33:29.085Z,18.50
2018-10-18T11:35:58.287Z,18.70
2018-10-18T11:38:26.653Z,18.70
2018-10-18T11:40:55.002Z,18.80
2018-10-18T11:43:23.394Z,18.60
2018-10-18T11:45:51.830Z,18.00
2018-10-18T11:48:21.027Z,17.50
2018-10-18T11:50:49.436Z,17.40
2018-10-18T11:53:17.794Z,17.40
2018-10-18T11:55:46.926Z,17.30
2018-10-18T11:58:15.322Z,17.20
2018-10-18T12:00:43.655Z,17.20
2018-10-18T12:03:12.028Z,17.10
2018-10-18T12:05:42.153Z,17.00
2018-10-18T12:08:11.422Z,16.90
2018-10-18T12:10:39.765Z,16.80
2018-10-18T12:13:08.323Z,16.80
2018-10-18T12:15:36.686Z,16.60
2018-10-18T12:18:05.839Z,16.50
2018-10-18T12:20:34.242Z,16.50
2018-10-18T12:23:02.633Z,16.50
2018-10-18T12:25:31.201Z,16.60
2018-10-18T12:27:59.545Z,16.50
2018-10-18T12:30:27.901Z,16.60
2018-10-18T12:32:56.328Z,16.50
2018-10-18T12:35:24.706Z,16.40
2018-10-18T12:37:53.101Z,16.40
2018-10-18T12:40:21.497Z,16.30
2018-10-18T12:42:49.840Z,16.10
2018-10-18T12:45:18.223Z,16.00
2018-10-18T12:47:46.566Z,16.00
2018-10-18T12:50:15.041Z,16.10
2018-10-18T12:52:43.325Z,16.10
2018-10-18T12:55:11.718Z,16.00
2018-10-18T12:57:40.904Z,16.00
2018-10-18T13:00:10.177Z,16.10
2018-10-18T13:02:38.584Z,16.10
2018-10-18T13:05:07.925Z,16.40
2018-10-18T13:07:36.279Z,16.40
2018-10-18T13:10:04.628Z,16.50
2018-10-18T13:12:34.180Z,16.50
2018-10-18T13:15:02.332Z,16.70
2018-10-18T13:17:30.682Z,16.60
2018-10-18T13:19:59.175Z,16.60
2018-10-18T13:22:27.528Z,16.50
2018-10-18T13:24:56.662Z,16.40
2018-10-18T13:27:25.155Z,16.40
2018-10-18T13:29:53.530Z,16.20
2018-10-18T13:32:21.930Z,16.10
2018-10-18T13:34:50.326Z,15.90
2018-10-18T13:37:18.666Z,15.80
2018-10-18T13:39:47.936Z,15.70
2018-10-18T13:42:17.185Z,15.80
2018-10-18T13:44:45.505Z,15.70
2018-10-18T13:47:13.853Z,15.70
2018-10-18T13:49:42.381Z,15.80
2018-10-18T13:52:11.164Z,15.70
2018-10-18T13:54:40.442Z,15.80
2018-10-18T13:57:08.964Z,15.80
2018-10-18T14:02:39.212Z,15.80
2018-10-18T14:05:08.360Z,15.90
2018-10-18T14:07:36.732Z,15.90
2018-10-18T14:10:05.090Z,16.00
2018-10-18T14:12:33.683Z,16.00
2018-10-18T14:15:02.055Z,16.10
2018-10-18T14:17:30.570Z,16.10
2018-10-18T14:19:58.812Z,16.00
2018-10-18T14:22:27.924Z,15.80
2018-10-18T14:24:56.312Z,15.80
2018-10-18T14:27:24.816Z,15.80
2018-10-18T14:29:53.186Z,15.70
2018-10-18T14:32:21.519Z,15.70
2018-10-18T14:34:49.862Z,15.80
2018-10-18T14:37:19.009Z,15.80
2018-10-18T14:39:47.335Z,15.80
2018-10-18T14:42:16.560Z,15.70
2018-10-18T14:44:44.998Z,15.70
2018-10-18T14:47:13.323Z,15.70
2018-10-18T14:49:41.681Z,15.60
2018-10-18T14:52:10.824Z,15.40
2018-10-18T14:54:39.133Z,15.40
2018-10-18T14:57:07.490Z,15.40
2018-10-18T14:59:36.193Z,15.40
2018-10-18T15:02:04.689Z,15.40
2018-10-18T15:04:33.067Z,15.40
2018-10-18T15:07:01.391Z,15.40
2018-10-18T15:09:29.734Z,15.40
2018-10-18T15:11:58.112Z,15.40
2018-10-18T15:14:27.344Z,15.40
2018-10-18T15:16:55.742Z,15.40
2018-10-18T15:19:24.058Z,15.40
2018-10-18T15:21:52.464Z,15.30
2018-10-18T15:24:21.568Z,15.20
2018-10-18T15:26:50.001Z,15.20
2018-10-18T15:29:19.162Z,15.10
2018-10-18T15:31:47.450Z,15.10
2018-10-18T15:34:15.801Z,15.00
2018-10-18T15:36:44.913Z,15.10
2018-10-18T15:39:13.337Z,15.10
2018-10-18T15:41:41.618Z,15.00
2018-10-18T15:44:10.040Z,15.00
2018-10-18T15:46:38.443Z,14.90
2018-10-18T15:49:06.803Z,14.80
2018-10-18T15:51:35.181Z,14.80
2018-10-18T15:54:03.612Z,14.80
2018-10-18T15:56:31.993Z,14.70
2018-10-18T15:59:00.385Z,14.70
2018-10-18T16:01:28.783Z,14.70
2018-10-18T16:03:57.922Z,14.70
2018-10-18T16:06:26.482Z,14.70
2018-10-18T16:08:54.675Z,14.70
2018-10-18T16:11:23.076Z,14.70
2018-10-18T16:13:51.395Z,14.70
2018-10-18T16:16:20.518Z,14.60
2018-10-18T16:18:48.900Z,14.60
2018-10-18T16:21:17.317Z,14.50
2018-10-18T16:23:45.671Z,14.50
2018-10-18T16:26:14.134Z,14.50
2018-10-18T16:28:42.371Z,14.50
2018-10-18T16:31:10.799Z,14.50
2018-10-18T16:33:39.184Z,14.40
2018-10-18T16:36:07.513Z,14.40
2018-10-18T16:38:35.863Z,14.40
2018-10-18T16:41:04.383Z,14.30
2018-10-18T16:43:32.594Z,14.30
2018-10-18T16:46:00.973Z,14.30
2018-10-18T16:48:30.058Z,14.30
2018-10-18T16:50:59.450Z,14.20
2018-10-18T16:53:28.564Z,14.20
2018-10-18T16:55:56.940Z,14.20
2018-10-18T16:58:25.350Z,14.20
2018-10-18T17:00:53.708Z,14.20
2018-10-18T17:03:22.049Z,14.20
2018-10-18T17:05:50.458Z,14.20
2018-10-18T17:08:18.817Z,14.10
2018-10-18T17:10:47.172Z,14.10
2018-10-18T17:13:15.531Z,14.10
2018-10-18T17:15:43.934Z,14.10
2018-10-18T17:18:13.190Z,14.10
2018-10-18T17:20:41.580Z,14.10
2018-10-18T17:23:10.946Z,14.10
2018-10-18T17:25:39.320Z,14.10
2018-10-18T17:28:07.735Z,14.10
2018-10-18T17:30:36.130Z,14.10
2018-10-18T17:33:04.555Z,14.10
2018-10-18T17:35:32.938Z,14.10
2018-10-18T17:38:02.105Z,14.10
2018-10-18T17:40:31.341Z,14.10
2018-10-18T17:42:59.828Z,14.10
2018-10-18T17:45:28.214Z,14.10
2018-10-18T17:47:57.451Z,14.10
2018-10-18T17:50:26.515Z,14.00
2018-10-18T17:52:54.992Z,14.00
2018-10-18T17:55:23.339Z,14.00
2018-10-18T17:57:52.604Z,14.00
2018-10-18T18:00:21.051Z,14.00
2018-10-18T18:02:49.667Z,14.00
2018-10-18T18:05:18.134Z,14.00
2018-10-18T18:07:46.471Z,14.00
2018-10-18T18:10:15.705Z,14.00
2018-10-18T18:12:43.981Z,14.00
2018-10-18T18:15:12.371Z,14.00
2018-10-18T18:17:40.712Z,14.00
2018-10-18T18:20:09.851Z,14.00
2018-10-18T18:22:38.299Z,13.90
2018-10-18T18:25:07.419Z,14.00
2018-10-18T18:27:35.838Z,14.00
2018-10-18T18:30:04.171Z,14.00
2018-10-18T18:32:32.508Z,13.90
2018-10-18T18:35:01.626Z,13.90
2018-10-18T18:37:29.996Z,13.90
2018-10-18T18:39:59.099Z,13.90
2018-10-18T18:42:27.449Z,13.90
2018-10-18T18:44:55.820Z,13.90
2018-10-18T18:47:24.186Z,13.90
2018-10-18T18:49:53.387Z,13.80
2018-10-18T18:52:22.658Z,13.80
2018-10-18T18:54:51.064Z,13.80
2018-10-18T18:57:19.440Z,13.80
2018-10-18T18:59:47.755Z,13.70
2018-10-18T19:02:16.127Z,13.70
2018-10-18T19:04:44.463Z,13.70
2018-10-18T19:07:12.843Z,13.70
2018-10-18T19:09:41.285Z,13.60
2018-10-18T19:12:10.394Z,13.60
2018-10-18T19:14:39.524Z,13.60
2018-10-18T19:17:07.881Z,13.60
2018-10-18T19:19:36.275Z,13.60
2018-10-18T19:22:04.591Z,13.50
2018-10-18T19:24:32.932Z,13.50
2018-10-18T19:27:01.293Z,13.50
2018-10-18T19:29:29.656Z,13.40
2018-10-18T19:31:58.818Z,13.40
2018-10-18T19:34:27.967Z,13.40
2018-10-18T19:36:56.359Z,13.40
2018-10-18T19:39:24.725Z,13.40
2018-10-18T19:41:53.236Z,13.40
2018-10-18T19:44:21.560Z,13.40
2018-10-18T19:46:50.697Z,13.40
2018-10-18T19:49:19.063Z,13.40
2018-10-18T19:51:47.447Z,13.40
2018-10-18T19:54:15.786Z,13.40
2018-10-18T19:56:45.029Z,13.30
2018-10-18T19:59:13.464Z,13.30
2018-10-18T20:01:41.829Z,13.40
2018-10-18T20:04:11.242Z,13.30
2018-10-18T20:06:39.576Z,13.30
2018-10-18T20:09:07.918Z,13.30
2018-10-18T20:11:37.025Z,13.30
2018-10-18T20:14:05.410Z,13.20
2018-10-18T20:16:33.727Z,13.30
2018-10-18T20:19:02.099Z,13.20
2018-10-18T20:21:30.426Z,13.20
2018-10-18T20:23:59.557Z,13.20
2018-10-18T20:26:28.013Z,13.20
2018-10-18T20:28:56.293Z,13.30
2018-10-18T20:31:24.667Z,13.40
2018-10-18T20:33:53.348Z,13.60
2018-10-18T20:36:22.440Z,13.90
2018-10-18T20:38:51.735Z,14.00
2018-10-18T20:41:20.059Z,13.90
2018-10-18T20:43:48.419Z,14.00
2018-10-18T20:46:16.841Z,14.10
2018-10-18T20:48:45.222Z,14.10
2018-10-18T20:51:13.935Z,14.10
2018-10-18T20:53:43.261Z,13.80
2018-10-18T20:56:12.646Z,13.80
2018-10-18T20:58:41.241Z,13.70
2018-10-18T21:01:10.302Z,13.40
2018-10-18T21:03:38.619Z,13.40
2018-10-18T21:06:06.999Z,13.30
2018-10-18T21:08:35.325Z,13.20
2018-10-18T21:11:03.722Z,13.10
2018-10-18T21:13:32.029Z,13.00
2018-10-18T21:16:00.459Z,13.00
2018-10-18T21:18:28.803Z,12.90
2018-10-18T21:20:57.931Z,12.90
2018-10-18T21:23:26.274Z,12.80
2018-10-18T21:25:55.421Z,12.80
2018-10-18T21:28:23.766Z,12.80
2018-10-18T21:30:52.135Z,12.90
2018-10-18T21:33:20.563Z,12.80
2018-10-18T21:35:48.925Z,12.80
2018-10-18T21:38:17.263Z,12.80
2018-10-18T21:40:45.617Z,12.80
2018-10-18T21:43:13.947Z,12.80
2018-10-18T21:45:42.318Z,12.80
2018-10-18T21:48:10.664Z,12.70
2018-10-18T21:50:39.947Z,12.70
2018-10-18T21:53:08.407Z,12.70
2018-10-18T21:55:36.666Z,12.70
2018-10-18T21:58:05.065Z,12.70
2018-10-18T22:00:33.400Z,12.70
2018-10-18T22:03:02.538Z,12.70
2018-10-18T22:05:30.901Z,12.70
2018-10-18T22:07:59.254Z,12.60
2018-10-18T22:10:27.646Z,12.60
2018-10-18T22:12:56.079Z,12.60
2018-10-18T22:15:24.412Z,12.60
2018-10-18T22:17:52.832Z,12.50
2018-10-18T22:20:21.186Z,12.50
2018-10-18T22:22:49.612Z,12.60
2018-10-18T22:25:17.947Z,12.50
2018-10-18T22:27:46.299Z,12.50
2018-10-18T22:30:14.671Z,12.50
2018-10-18T22:32:43.011Z,12.50
2018-10-18T22:35:11.517Z,12.50
2018-10-18T22:37:39.872Z,12.40
2018-10-18T22:40:08.237Z,12.40
2018-10-18T22:42:36.600Z,12.40
2018-10-18T22:45:04.990Z,12.40
2018-10-18T22:47:33.347Z,12.40
2018-10-18T22:50:01.730Z,12.40
2018-10-18T22:52:30.248Z,12.40
2018-10-18T22:54:58.694Z,12.30
2018-10-18T22:57:27.037Z,12.30
2018-10-18T22:59:56.157Z,12.30
2018-10-18T23:02:24.537Z,12.30
2018-10-18T23:04:52.925Z,12.30
2018-10-18T23:07:21.296Z,12.30
2018-10-18T23:09:49.726Z,12.30
2018-10-18T23:12:18.065Z,12.30
2018-10-18T23:14:46.410Z,12.30
2018-10-18T23:17:14.797Z,12.30
2018-10-18T23:19:43.133Z,12.30
2018-10-18T23:22:11.499Z,12.20
2018-10-18T23:24:39.887Z,12.20
2018-10-18T23:27:08.317Z,12.20
2018-10-18T23:29:36.635Z,12.10
2018-10-18T23:32:05.004Z,12.10
2018-10-18T23:34:33.346Z,12.10
2018-10-18T23:37:02.466Z,12.10
2018-10-18T23:39:30.797Z,12.00
2018-10-18T23:41:59.153Z,12.00
2018-10-18T23:44:27.512Z,12.00
2018-10-18T23:46:55.876Z,12.00
2018-10-18T23:49:24.263Z,12.00
2018-10-18T23:51:52.585Z,12.00
2018-10-18T23:54:20.973Z,11.90
2018-10-18T23:56:49.363Z,11.90
2018-10-18T23:59:17.766Z,11.90
